createdAt,value
2022-09-18T00:01:31.792Z,2.20
2022-09-18T00:04:02.418Z,2.03
2022-09-18T00:06:32.362Z,2.15
2022-09-18T00:09:02.748Z,2.03
2022-09-18T00:11:34.770Z,1.98
2022-09-18T00:14:03.275Z,2.00
2022-09-18T00:16:31.805Z,2.20
2022-09-18T00:19:00.381Z,2.08
2022-09-18T00:21:29.930Z,2.05
2022-09-18T00:24:01.203Z,1.90
2022-09-18T00:26:30.001Z,2.10
2022-09-18T00:28:59.345Z,2.20
2022-09-18T00:31:30.026Z,1.80
2022-09-18T00:33:59.166Z,2.03
2022-09-18T00:36:27.887Z,2.47
2022-09-18T00:38:56.370Z,2.10
2022-09-18T00:41:27.497Z,2.00
2022-09-18T00:43:58.531Z,2.10
2022-09-18T00:46:28.431Z,1.90
2022-09-18T00:49:04.113Z,2.17
2022-09-18T00:51:33.231Z,2.03
2022-09-18T00:54:06.663Z,1.88
2022-09-18T00:56:36.424Z,1.80
2022-09-18T00:59:07.170Z,2.42
2022-09-18T01:01:35.621Z,1.90
2022-09-18T01:04:04.245Z,1.85
2022-09-18T01:06:37.056Z,1.90
2022-09-18T01:09:10.520Z,2.00
2022-09-18T01:11:45.301Z,2.00
2022-09-18T01:14:24.159Z,1.95
2022-09-18T01:16:57.684Z,1.90
2022-09-18T01:20:22.594Z,1.85
2022-09-18T01:23:04.319Z,2.10
2022-09-18T01:25:38.487Z,1.83
2022-09-18T01:28:16.063Z,1.95
2022-09-18T01:30:46.690Z,1.80
2022-09-18T01:33:19.454Z,2.10
2022-09-18T01:35:50.419Z,1.90
2022-09-18T01:38:22.023Z,2.17
2022-09-18T01:40:52.590Z,2.03
2022-09-18T01:43:22.570Z,2.17
2022-09-18T01:45:52.909Z,1.80
2022-09-18T01:48:30.406Z,1.85
2022-09-18T01:51:02.330Z,1.80
2022-09-18T01:53:33.777Z,2.28
2022-09-18T01:56:06.371Z,2.10
2022-09-18T01:58:36.481Z,1.80
2022-09-18T02:01:07.915Z,2.00
2022-09-18T02:03:39.534Z,2.13
2022-09-18T02:06:10.092Z,1.90
2022-09-18T02:08:42.277Z,1.80
2022-09-18T02:11:12.212Z,2.00
2022-09-18T02:13:43.728Z,2.10
2022-09-18T02:16:16.281Z,1.70
2022-09-18T02:18:47.279Z,1.85
2022-09-18T02:21:21.924Z,2.08
2022-09-18T02:23:50.242Z,1.83
2022-09-18T02:26:18.677Z,2.00
2022-09-18T02:28:48.389Z,1.90
2022-09-18T02:31:17.993Z,2.13
2022-09-18T02:33:46.431Z,2.10
2022-09-18T02:36:52.224Z,1.98
2022-09-18T02:39:46.762Z,1.60
2022-09-18T02:42:26.141Z,1.70
2022-09-18T02:45:00.100Z,1.77
2022-09-18T02:47:37.113Z,2.00
2022-09-18T02:50:11.649Z,2.05
2022-09-18T02:52:43.246Z,1.92
2022-09-18T02:55:14.145Z,2.00
2022-09-18T02:57:45.503Z,1.88
2022-09-18T03:00:18.627Z,1.95
2022-09-18T03:02:47.663Z,2.00
2022-09-18T03:05:16.282Z,1.90
2022-09-18T03:07:44.719Z,1.70
2022-09-18T03:10:13.161Z,1.95
2022-09-18T03:12:41.580Z,1.92
2022-09-18T03:15:11.655Z,1.95
2022-09-18T03:17:41.547Z,1.65
2022-09-18T03:20:10.629Z,1.63
2022-09-18T03:22:39.080Z,1.80
2022-09-18T03:25:09.736Z,2.00
2022-09-18T03:27:38.342Z,1.88
2022-09-18T03:30:08.173Z,1.90
2022-09-18T03:32:36.616Z,1.90
2022-09-18T03:35:08.102Z,2.10
2022-09-18T03:37:36.578Z,1.98
2022-09-18T03:40:05.837Z,1.90
2022-09-18T03:42:34.300Z,1.85
2022-09-18T03:45:02.714Z,1.67
2022-09-18T03:47:35.697Z,2.17
2022-09-18T03:50:07.694Z,2.15
2022-09-18T03:52:37.087Z,2.20
2022-09-18T03:55:06.554Z,2.20
2022-09-18T03:57:34.955Z,2.40
2022-09-18T04:00:03.770Z,2.10
2022-09-18T04:02:32.256Z,2.17
2022-09-18T04:05:00.868Z,2.15
2022-09-18T04:07:30.722Z,1.90
2022-09-18T04:09:59.530Z,2.22
2022-09-18T04:12:27.991Z,2.00
2022-09-18T04:14:56.466Z,1.90
2022-09-18T04:17:25.122Z,1.67
2022-09-18T04:19:55.019Z,1.90
2022-09-18T04:22:23.568Z,2.15
2022-09-18T04:24:53.445Z,1.92
2022-09-18T04:27:22.208Z,1.95
2022-09-18T04:29:50.747Z,1.92
2022-09-18T04:32:19.228Z,2.30
2022-09-18T04:34:47.691Z,2.20
2022-09-18T04:37:16.175Z,1.77
2022-09-18T04:39:44.692Z,2.20
2022-09-18T04:42:14.639Z,2.00
2022-09-18T04:44:43.057Z,2.05
2022-09-18T04:47:11.485Z,2.03
2022-09-18T04:49:39.928Z,2.03
2022-09-18T04:52:08.358Z,2.00
2022-09-18T04:54:38.120Z,2.13
2022-09-18T04:57:06.772Z,1.98
2022-09-18T04:59:36.821Z,2.00
2022-09-18T05:02:05.643Z,2.20
2022-09-18T05:04:34.384Z,1.95
2022-09-18T05:07:05.013Z,2.05
2022-09-18T05:09:33.906Z,2.03
2022-09-18T05:12:02.823Z,1.98
2022-09-18T05:14:31.358Z,1.70
2022-09-18T05:17:01.577Z,1.70
2022-09-18T05:19:30.221Z,2.03
2022-09-18T05:21:58.655Z,1.60
2022-09-18T05:24:27.205Z,1.92
2022-09-18T05:26:55.648Z,2.00
2022-09-18T05:29:24.174Z,1.90
2022-09-18T05:31:52.762Z,1.90
2022-09-18T05:34:22.710Z,1.83
2022-09-18T05:36:51.072Z,2.10
2022-09-18T05:39:19.648Z,1.90
2022-09-18T05:41:51.237Z,1.90
2022-09-18T05:44:20.051Z,1.90
2022-09-18T05:46:49.196Z,2.22
2022-09-18T05:49:17.676Z,1.95
2022-09-18T05:51:47.513Z,2.00
2022-09-18T05:54:16.044Z,1.92
2022-09-18T05:56:44.478Z,1.98
2022-09-18T05:59:12.851Z,2.20
2022-09-18T06:01:46.304Z,2.20
2022-09-18T06:04:15.434Z,2.75
2022-09-18T06:06:43.918Z,2.47
2022-09-18T06:09:13.842Z,2.90
2022-09-18T06:11:42.368Z,3.03
2022-09-18T06:14:10.831Z,2.85
2022-09-18T06:16:42.467Z,3.00
2022-09-18T06:19:11.126Z,2.80
2022-09-18T06:21:39.810Z,2.60
2022-09-18T06:24:08.985Z,3.10
2022-09-18T06:26:38.908Z,2.60
2022-09-18T06:29:07.345Z,2.70
2022-09-18T06:31:35.771Z,2.80
2022-09-18T06:34:04.287Z,2.60
2022-09-18T06:36:32.754Z,3.13
2022-09-18T06:39:01.717Z,2.92
2022-09-18T06:41:30.174Z,2.70
2022-09-18T06:44:00.091Z,2.80
2022-09-18T06:46:28.593Z,2.50
2022-09-18T06:48:57.111Z,2.53
2022-09-18T06:51:25.576Z,2.60
2022-09-18T06:53:54.077Z,2.60
2022-09-18T06:56:22.545Z,2.80
2022-09-18T06:58:53.597Z,2.80
2022-09-18T07:01:23.487Z,2.45
2022-09-18T07:03:52.075Z,2.20
2022-09-18T07:06:20.455Z,2.58
2022-09-18T07:08:49.073Z,2.47
2022-09-18T07:11:17.774Z,2.40
2022-09-18T07:13:47.359Z,2.60
2022-09-18T07:16:15.794Z,2.78
2022-09-18T07:18:46.817Z,2.80
2022-09-18T07:21:15.432Z,2.75
2022-09-18T07:23:43.830Z,2.83
2022-09-18T07:26:12.294Z,2.33
2022-09-18T07:28:40.688Z,2.75
2022-09-18T07:31:09.153Z,2.28
2022-09-18T07:33:37.650Z,2.53
2022-09-18T07:36:07.789Z,2.80
2022-09-18T07:38:36.245Z,2.70
2022-09-18T07:41:05.083Z,2.60
2022-09-18T07:43:33.510Z,2.70
2022-09-18T07:46:02.592Z,2.47
2022-09-18T07:48:31.021Z,2.80
2022-09-18T07:50:59.797Z,2.58
2022-09-18T07:53:29.628Z,2.90
2022-09-18T07:55:58.163Z,2.70
2022-09-18T07:58:26.945Z,3.00
2022-09-18T08:00:55.449Z,2.60
2022-09-18T08:03:25.393Z,2.40
2022-09-18T08:05:53.940Z,2.90
2022-09-18T08:08:22.323Z,2.60
2022-09-18T08:10:52.361Z,2.60
2022-09-18T08:13:20.827Z,2.60
2022-09-18T08:15:49.572Z,2.88
2022-09-18T08:18:18.285Z,2.88
2022-09-18T08:20:46.968Z,3.28
2022-09-18T08:23:15.429Z,3.30
2022-09-18T08:25:44.171Z,2.95
2022-09-18T08:28:14.108Z,3.03
2022-09-18T08:30:42.705Z,3.22
2022-09-18T08:33:12.042Z,2.83
2022-09-18T08:35:40.620Z,2.47
2022-09-18T08:38:11.293Z,3.10
2022-09-18T08:41:25.305Z,2.90
2022-09-18T08:44:02.620Z,2.78
2022-09-18T08:46:35.449Z,2.47
2022-09-18T08:49:16.500Z,2.28
2022-09-18T08:51:50.357Z,2.38
2022-09-18T08:54:23.869Z,2.80
2022-09-18T08:56:52.974Z,2.38
2022-09-18T08:59:30.315Z,2.30
2022-09-18T09:02:16.267Z,2.38
2022-09-18T09:04:45.017Z,2.30
2022-09-18T09:07:28.878Z,2.20
2022-09-18T09:10:36.842Z,2.25
2022-09-18T09:13:35.973Z,2.42
2022-09-18T09:16:08.674Z,2.25
2022-09-18T09:18:41.460Z,2.30
2022-09-18T09:21:17.729Z,2.30
2022-09-18T09:23:57.186Z,2.05
2022-09-18T09:26:25.740Z,2.33
2022-09-18T09:28:56.677Z,2.25
2022-09-18T09:31:28.971Z,2.28
2022-09-18T09:33:59.796Z,2.08
2022-09-18T09:36:30.615Z,1.83
2022-09-18T09:39:01.506Z,2.00
2022-09-18T09:41:35.019Z,2.00
2022-09-18T09:44:16.306Z,1.92
2022-09-18T09:46:53.420Z,2.00
2022-09-18T09:49:25.706Z,1.92
2022-09-18T09:52:02.083Z,1.90
2022-09-18T09:54:32.806Z,1.83
2022-09-18T09:57:09.495Z,2.08
2022-09-18T09:59:45.508Z,1.80
2022-09-18T10:02:53.435Z,1.60
2022-09-18T10:05:27.669Z,1.52
2022-09-18T10:07:59.896Z,2.15
2022-09-18T10:10:32.475Z,1.80
2022-09-18T10:13:04.851Z,1.80
2022-09-18T10:15:36.529Z,1.70
2022-09-18T10:18:15.667Z,1.85
2022-09-18T10:20:44.664Z,2.03
2022-09-18T10:23:17.945Z,1.83
2022-09-18T10:25:50.047Z,1.60
2022-09-18T10:28:18.791Z,1.85
2022-09-18T10:30:55.983Z,2.00
2022-09-18T10:33:38.322Z,2.05
2022-09-18T10:36:23.821Z,1.60
2022-09-18T10:38:53.262Z,1.70
2022-09-18T10:41:34.523Z,1.90
2022-09-18T10:44:22.797Z,2.08
2022-09-18T10:46:55.162Z,1.58
2022-09-18T10:49:29.342Z,1.80
2022-09-18T10:52:32.605Z,1.80
2022-09-18T10:55:17.219Z,1.88
2022-09-18T10:57:46.849Z,1.67
2022-09-18T11:00:39.338Z,1.60
2022-09-18T11:03:22.997Z,1.70
2022-09-18T11:05:55.913Z,1.77
2022-09-18T11:08:27.205Z,1.67
2022-09-18T11:11:06.360Z,1.88
2022-09-18T11:13:35.130Z,1.70
2022-09-18T11:16:05.521Z,1.77
2022-09-18T11:18:34.486Z,1.98
2022-09-18T11:21:06.622Z,1.70
2022-09-18T11:23:36.042Z,1.70
2022-09-18T11:26:19.486Z,1.73
2022-09-18T11:29:03.596Z,2.58
2022-09-18T11:31:44.774Z,1.95
2022-09-18T11:34:21.969Z,2.03
2022-09-18T11:36:54.124Z,2.50
2022-09-18T11:39:29.106Z,2.30
2022-09-18T11:41:57.683Z,3.20
2022-09-18T11:44:28.548Z,5.28
2022-09-18T11:47:20.731Z,4.32
2022-09-18T11:49:51.489Z,4.07
2022-09-18T11:52:24.598Z,3.90
2022-09-18T11:54:56.425Z,3.97
2022-09-18T11:57:27.939Z,3.60
2022-09-18T11:59:59.151Z,3.50
2022-09-18T12:02:33.778Z,3.38
2022-09-18T12:05:11.197Z,2.95
2022-09-18T12:07:44.337Z,3.05
2022-09-18T12:10:18.078Z,2.78
2022-09-18T12:12:49.363Z,3.00
2022-09-18T12:15:20.380Z,2.78
2022-09-18T12:17:52.323Z,2.67
2022-09-18T12:20:24.229Z,2.45
2022-09-18T12:22:55.589Z,2.60
2022-09-18T12:25:29.926Z,2.65
2022-09-18T12:28:01.980Z,2.58
2022-09-18T12:30:36.364Z,2.30
2022-09-18T12:33:18.069Z,2.75
2022-09-18T12:36:14.229Z,2.20
2022-09-18T12:38:57.953Z,2.85
2022-09-18T12:41:41.862Z,2.20
2022-09-18T12:44:45.145Z,2.35
2022-09-18T12:47:33.153Z,2.38
2022-09-18T12:50:23.603Z,2.28
2022-09-18T12:53:09.163Z,2.40
2022-09-18T12:56:04.494Z,2.45
2022-09-18T12:59:12.551Z,2.38
2022-09-18T13:01:45.617Z,2.30
2022-09-18T13:04:20.394Z,2.35
2022-09-18T13:06:53.053Z,1.98
2022-09-18T13:09:25.957Z,2.03
2022-09-18T13:11:58.767Z,2.45
2022-09-18T13:14:29.999Z,2.35
2022-09-18T13:17:02.749Z,2.30
2022-09-18T13:19:33.806Z,2.22
2022-09-18T13:22:05.727Z,2.15
2022-09-18T13:24:36.309Z,1.88
2022-09-18T13:27:10.309Z,2.20
2022-09-18T13:29:59.045Z,1.95
2022-09-18T13:32:40.197Z,2.35
2022-09-18T13:35:22.349Z,2.13
2022-09-18T13:37:50.924Z,2.00
2022-09-18T13:40:35.574Z,2.10
2022-09-18T13:43:47.520Z,2.15
2022-09-18T13:46:39.745Z,2.30
2022-09-18T13:49:28.947Z,1.80
2022-09-18T13:51:57.647Z,2.35
2022-09-18T13:54:29.355Z,2.00
2022-09-18T13:57:21.493Z,1.90
2022-09-18T13:59:54.363Z,2.25
2022-09-18T14:02:34.660Z,2.35
2022-09-18T14:05:34.072Z,2.10
2022-09-18T14:08:16.159Z,2.03
2022-09-18T14:11:19.540Z,2.33
2022-09-18T14:13:54.223Z,1.88
2022-09-18T14:16:35.560Z,1.90
2022-09-18T14:19:07.241Z,2.13
2022-09-18T14:21:41.165Z,2.03
2022-09-18T14:24:39.321Z,2.05
2022-09-18T14:27:37.212Z,2.20
2022-09-18T14:30:22.865Z,1.95
2022-09-18T14:33:23.882Z,1.75
2022-09-18T14:35:58.857Z,2.03
2022-09-18T14:38:32.955Z,2.28
2022-09-18T14:41:18.235Z,1.92
2022-09-18T14:43:49.889Z,1.92
2022-09-18T14:46:22.115Z,2.22
2022-09-18T14:48:52.097Z,2.13
2022-09-18T14:51:22.705Z,1.95
2022-09-18T14:53:52.961Z,2.28
2022-09-18T14:56:25.221Z,2.33
2022-09-18T14:58:53.685Z,2.20
2022-09-18T15:01:24.440Z,1.85
2022-09-18T15:03:55.167Z,3.53
2022-09-18T15:06:25.276Z,6.20
2022-09-18T15:08:54.651Z,7.80
2022-09-18T15:11:32.124Z,14.27
2022-09-18T15:14:21.441Z,14.05
2022-09-18T15:16:56.603Z,11.63
2022-09-18T15:19:27.205Z,13.18
2022-09-18T15:21:57.116Z,13.75
2022-09-18T15:24:25.971Z,15.75
2022-09-18T15:26:56.988Z,16.90
2022-09-18T15:29:27.767Z,16.80
2022-09-18T15:31:56.519Z,15.38
2022-09-18T15:34:28.260Z,15.55
2022-09-18T15:36:57.644Z,15.35
2022-09-18T15:39:30.975Z,15.75
2022-09-18T15:42:19.121Z,16.15
2022-09-18T15:45:20.271Z,15.27
2022-09-18T15:47:49.171Z,13.75
2022-09-18T15:50:46.474Z,15.23
2022-09-18T15:53:29.609Z,15.95
2022-09-18T15:56:04.646Z,15.63
2022-09-18T15:58:45.250Z,14.82
2022-09-18T16:01:23.502Z,15.00
2022-09-18T16:04:04.479Z,14.18
2022-09-18T16:06:43.719Z,15.15
2022-09-18T16:09:24.196Z,14.27
2022-09-18T16:11:53.073Z,13.82
2022-09-18T16:14:47.730Z,13.05
2022-09-18T16:17:57.023Z,13.35
2022-09-18T16:20:39.822Z,13.43
2022-09-18T16:23:21.118Z,12.65
2022-09-18T16:26:10.530Z,12.82
2022-09-18T16:28:43.931Z,11.70
2022-09-18T16:31:13.157Z,13.20
2022-09-18T16:33:57.394Z,12.75
2022-09-18T16:36:32.938Z,12.27
2022-09-18T16:39:04.243Z,12.13
2022-09-18T16:41:33.993Z,12.80
2022-09-18T16:44:04.445Z,10.80
2022-09-18T16:46:36.220Z,10.52
2022-09-18T16:49:05.053Z,11.13
2022-09-18T16:51:33.765Z,10.65
2022-09-18T16:54:03.625Z,10.52
2022-09-18T16:56:34.993Z,11.45
2022-09-18T16:59:04.662Z,11.18
2022-09-18T17:01:48.491Z,11.15
2022-09-18T17:04:23.604Z,11.23
2022-09-18T17:06:52.071Z,9.70
2022-09-18T17:09:23.936Z,10.95
2022-09-18T17:11:52.648Z,10.30
2022-09-18T17:14:21.479Z,9.18
2022-09-18T17:16:50.143Z,9.05
2022-09-18T17:19:19.060Z,9.40
2022-09-18T17:21:47.734Z,9.80
2022-09-18T17:24:17.474Z,10.48
2022-09-18T17:26:47.368Z,9.50
2022-09-18T17:29:15.843Z,10.30
2022-09-18T17:31:45.013Z,9.80
2022-09-18T17:34:16.653Z,10.25
2022-09-18T17:36:45.584Z,10.27
2022-09-18T17:39:14.114Z,10.68
2022-09-18T17:41:43.412Z,10.30
2022-09-18T17:44:13.334Z,10.15
2022-09-18T17:46:41.853Z,9.82
2022-09-18T17:49:10.455Z,10.80
2022-09-18T17:51:38.908Z,10.95
2022-09-18T17:54:08.450Z,10.57
2022-09-18T17:56:37.230Z,10.70
2022-09-18T17:59:08.790Z,9.68
2022-09-18T18:01:43.135Z,9.32
2022-09-18T18:04:11.747Z,9.20
2022-09-18T18:06:40.271Z,9.60
2022-09-18T18:09:09.998Z,9.13
2022-09-18T18:11:38.854Z,9.80
2022-09-18T18:14:07.478Z,9.10
2022-09-18T18:16:36.203Z,8.93
2022-09-18T18:19:08.355Z,9.40
2022-09-18T18:21:37.039Z,8.63
2022-09-18T18:24:09.063Z,8.75
2022-09-18T18:26:37.870Z,8.57
2022-09-18T18:29:11.031Z,8.95
2022-09-18T18:31:40.054Z,9.00
2022-09-18T18:34:10.938Z,9.13
2022-09-18T18:36:43.140Z,8.10
2022-09-18T18:39:14.884Z,9.15
2022-09-18T18:41:45.303Z,8.57
2022-09-18T18:44:15.003Z,8.65
2022-09-18T18:46:44.952Z,7.63
2022-09-18T18:49:16.618Z,7.78
2022-09-18T18:51:48.048Z,8.73
2022-09-18T18:54:17.822Z,8.32
2022-09-18T18:56:47.298Z,8.20
2022-09-18T18:59:19.178Z,7.95
2022-09-18T19:01:48.349Z,7.47
2022-09-18T19:04:20.006Z,8.13
2022-09-18T19:06:49.837Z,7.72
2022-09-18T19:09:20.798Z,7.45
2022-09-18T19:11:50.172Z,7.68
2022-09-18T19:14:20.662Z,8.57
2022-09-18T19:16:49.529Z,7.07
2022-09-18T19:19:21.060Z,8.00
2022-09-18T19:21:49.496Z,7.50
2022-09-18T19:24:18.713Z,7.45
2022-09-18T19:26:47.852Z,7.63
2022-09-18T19:29:17.694Z,7.32
2022-09-18T19:31:46.924Z,7.50
2022-09-18T19:34:17.824Z,7.72
2022-09-18T19:36:50.213Z,7.68
2022-09-18T19:39:19.855Z,7.13
2022-09-18T19:41:52.148Z,32.60
2022-09-18T19:44:26.502Z,31.30
2022-09-18T19:46:56.173Z,90.63
2022-09-18T19:49:28.851Z,107.28
2022-09-18T19:51:58.700Z,104.47
2022-09-18T19:54:27.259Z,75.75
2022-09-18T19:56:55.653Z,61.38
2022-09-18T19:59:24.100Z,44.70
2022-09-18T20:01:53.747Z,41.17
2022-09-18T20:04:22.206Z,40.35
2022-09-18T20:06:50.768Z,35.63
2022-09-18T20:09:20.846Z,33.42
2022-09-18T20:11:51.095Z,31.42
2022-09-18T20:14:19.509Z,29.55
2022-09-18T20:16:48.044Z,27.77
2022-09-18T20:19:16.516Z,27.27
2022-09-18T20:21:45.110Z,25.05
2022-09-18T20:24:13.858Z,24.35
2022-09-18T20:26:44.512Z,22.80
2022-09-18T20:29:16.062Z,22.98
2022-09-18T20:31:46.131Z,22.85
2022-09-18T20:34:16.102Z,22.30
2022-09-18T20:36:44.661Z,20.75
2022-09-18T20:39:13.226Z,21.50
2022-09-18T20:41:43.163Z,19.30
2022-09-18T20:44:11.783Z,19.00
2022-09-18T20:46:42.923Z,18.10
2022-09-18T20:49:17.445Z,18.13
2022-09-18T20:51:46.126Z,18.77
2022-09-18T20:54:15.139Z,17.55
2022-09-18T20:56:45.010Z,16.30
2022-09-18T20:59:16.166Z,16.23
2022-09-18T21:01:45.074Z,14.60
2022-09-18T21:04:17.517Z,15.23
2022-09-18T21:06:47.433Z,14.55
2022-09-18T21:09:16.271Z,13.50
2022-09-18T21:11:46.062Z,13.30
2022-09-18T21:14:15.545Z,13.23
2022-09-18T21:16:44.981Z,12.80
2022-09-18T21:19:14.627Z,12.40
2022-09-18T21:21:43.015Z,12.25
2022-09-18T21:24:11.736Z,11.18
2022-09-18T21:26:41.415Z,11.93
2022-09-18T21:29:13.742Z,11.38
2022-09-18T21:31:43.332Z,11.02
2022-09-18T21:34:13.417Z,10.80
2022-09-18T21:36:44.014Z,10.57
2022-09-18T21:39:13.283Z,10.32
2022-09-18T21:41:46.056Z,9.32
2022-09-18T21:44:17.382Z,9.45
2022-09-18T21:46:46.256Z,8.88
2022-09-18T21:49:16.364Z,9.15
2022-09-18T21:51:44.985Z,8.40
2022-09-18T21:54:15.782Z,8.90
2022-09-18T21:56:44.698Z,8.75
2022-09-18T21:59:13.429Z,8.75
2022-09-18T22:01:43.690Z,8.65
2022-09-18T22:04:13.496Z,7.72
2022-09-18T22:06:43.916Z,7.57
2022-09-18T22:09:13.612Z,8.10
2022-09-18T22:11:42.453Z,7.72
2022-09-18T22:14:12.704Z,7.45
2022-09-18T22:16:43.128Z,7.45
2022-09-18T22:19:11.531Z,7.47
2022-09-18T22:21:41.847Z,7.05
2022-09-18T22:24:17.809Z,7.28
2022-09-18T22:26:48.568Z,7.40
2022-09-18T22:29:18.379Z,6.82
2022-09-18T22:31:48.804Z,6.72
2022-09-18T22:34:18.951Z,6.93
2022-09-18T22:36:47.645Z,8.38
2022-09-18T22:39:17.089Z,10.60
2022-09-18T22:41:45.723Z,17.10
2022-09-18T22:44:14.763Z,14.20
2022-09-18T22:46:44.401Z,15.20
2022-09-18T22:49:16.405Z,13.13
2022-09-18T22:51:45.309Z,12.25
2022-09-18T22:54:14.200Z,11.77
2022-09-18T22:56:44.565Z,10.90
2022-09-18T22:59:13.537Z,9.95
2022-09-18T23:01:47.810Z,9.32
2022-09-18T23:04:18.213Z,8.02
2022-09-18T23:06:46.765Z,7.45
2022-09-18T23:09:16.003Z,8.07
2022-09-18T23:11:45.360Z,6.95
2022-09-18T23:14:15.073Z,7.10
2022-09-18T23:16:43.563Z,7.80
2022-09-18T23:19:17.865Z,6.60
2022-09-18T23:21:46.409Z,6.70
2022-09-18T23:24:16.126Z,6.93
2022-09-18T23:26:46.861Z,6.10
2022-09-18T23:29:18.372Z,6.20
2022-09-18T23:31:50.454Z,6.03
2022-09-18T23:34:23.552Z,6.30
2022-09-18T23:36:54.188Z,5.45
2022-09-18T23:39:24.442Z,5.47
2022-09-18T23:41:53.211Z,5.45
2022-09-18T23:44:22.993Z,5.22
2022-09-18T23:46:51.514Z,5.10
2022-09-18T23:49:23.597Z,6.03
2022-09-18T23:51:53.500Z,5.57
2022-09-18T23:54:23.432Z,4.60
2022-09-18T23:56:52.324Z,4.82
2022-09-18T23:59:23.113Z,5.35
